Time;durP1;ratioP1;P1;durP2;ratioP2;P2;SDS_P1;SDS_P2;PMS_P1;PMS_P2;Temp;Humidity;BMP_temperature;BMP_pressure;BME280_temperature;BME280_humidity;BME280_pressure;Samples;Min_cycle;Max_cycle;Signal;HPM_P1;HPM_P2
2023/05/21 00:00:14;;;;;;;7.38;3.60;;;;;;;;;;5025306;28;20209;-72
2023/05/21 00:02:39;;;;;;;8.32;3.92;;;;;;;;;;5019825;28;20239;-73
2023/05/21 00:05:05;;;;;;;6.43;3.80;;;;;;;;;;5025853;28;20181;-73
2023/05/21 00:07:32;;;;;;;6.22;3.95;;;;;;;;;;5016475;28;20557;-72
2023/05/21 00:09:57;;;;;;;8.38;4.38;;;;;;;;;;5038258;28;20214;-72
2023/05/21 00:12:22;;;;;;;6.65;4.05;;;;;;;;;;5020749;28;20230;-73
2023/05/21 00:14:48;;;;;;;6.53;4.43;;;;;;;;;;5030703;28;20275;-72
2023/05/21 00:17:13;;;;;;;7.65;4.00;;;;;;;;;;5028484;28;20548;-73
2023/05/21 00:19:39;;;;;;;7.32;4.35;;;;;;;;;;5022630;28;20432;-73
2023/05/21 00:22:04;;;;;;;5.95;4.00;;;;;;;;;;5020592;28;20305;-73
2023/05/21 00:24:30;;;;;;;6.90;4.07;;;;;;;;;;5032239;28;20185;-72
2023/05/21 00:26:55;;;;;;;6.45;4.20;;;;;;;;;;5019718;28;20198;-73
2023/05/21 00:29:21;;;;;;;10.90;4.72;;;;;;;;;;5019655;28;20202;-73
2023/05/21 00:31:47;;;;;;;7.18;4.60;;;;;;;;;;5021840;28;20198;-74
2023/05/21 00:34:13;;;;;;;6.75;3.90;;;;;;;;;;5015418;28;20221;-72
2023/05/21 00:36:39;;;;;;;7.63;4.00;;;;;;;;;;5014834;28;20699;-73
2023/05/21 00:39:05;;;;;;;6.93;4.00;;;;;;;;;;5022973;28;20236;-72
2023/05/21 00:41:30;;;;;;;5.28;3.83;;;;;;;;;;5026826;28;20186;-72
2023/05/21 00:43:59;;;;;;;6.82;4.72;;;;;;;;;;5018522;28;20277;-73
2023/05/21 00:46:27;;;;;;;8.65;4.68;;;;;;;;;;5022090;28;20209;-73
2023/05/21 00:48:53;;;;;;;5.22;4.18;;;;;;;;;;5028159;28;20194;-72
2023/05/21 00:51:20;;;;;;;4.82;3.88;;;;;;;;;;5025332;28;20622;-73
2023/05/21 00:53:50;;;;;;;6.38;4.18;;;;;;;;;;5026423;28;20293;-73
2023/05/21 00:56:15;;;;;;;7.03;4.32;;;;;;;;;;5021690;28;20186;-72
2023/05/21 00:58:41;;;;;;;6.82;4.43;;;;;;;;;;5026819;28;20201;-73
2023/05/21 01:01:12;;;;;;;6.60;3.83;;;;;;;;;;5028926;28;20217;-73
2023/05/21 01:03:37;;;;;;;7.07;4.30;;;;;;;;;;5014589;28;20228;-73
2023/05/21 01:06:08;;;;;;;6.60;4.15;;;;;;;;;;5018892;28;20199;-73
2023/05/21 01:08:36;;;;;;;6.25;4.13;;;;;;;;;;5036030;28;21180;-73
2023/05/21 01:11:03;;;;;;;6.03;4.28;;;;;;;;;;5026652;28;20178;-72
2023/05/21 01:13:31;;;;;;;7.50;4.15;;;;;;;;;;5023493;28;20206;-72
2023/05/21 01:15:58;;;;;;;8.80;4.10;;;;;;;;;;5028725;28;20265;-73
2023/05/21 01:18:23;;;;;;;7.13;4.45;;;;;;;;;;5026806;28;20202;-72
2023/05/21 01:20:49;;;;;;;8.15;3.90;;;;;;;;;;5029350;28;20232;-72
2023/05/21 01:23:18;;;;;;;6.97;4.05;;;;;;;;;;5028178;28;20261;-72
2023/05/21 01:25:45;;;;;;;5.25;4.20;;;;;;;;;;5021582;28;20179;-71
2023/05/21 01:28:10;;;;;;;6.55;4.68;;;;;;;;;;5013783;28;20190;-72
2023/05/21 01:30:38;;;;;;;4.82;3.95;;;;;;;;;;5009401;28;20187;-72
2023/05/21 01:33:21;;;;;;;4.93;3.80;;;;;;;;;;5026132;28;20217;-72
2023/05/21 01:35:51;;;;;;;5.28;4.40;;;;;;;;;;5028479;28;20663;-72
2023/05/21 01:38:50;;;;;;;6.00;3.80;;;;;;;;;;5024418;28;20240;-72
2023/05/21 01:41:17;;;;;;;5.15;3.85;;;;;;;;;;5021265;28;20219;-72
2023/05/21 01:43:45;;;;;;;5.95;4.18;;;;;;;;;;5028494;28;20201;-73
2023/05/21 01:46:14;;;;;;;5.72;4.60;;;;;;;;;;5021840;28;20193;-73
2023/05/21 01:48:41;;;;;;;5.47;4.63;;;;;;;;;;5027500;28;20185;-72
2023/05/21 01:51:07;;;;;;;6.90;3.83;;;;;;;;;;5030773;28;20631;-73
2023/05/21 01:53:32;;;;;;;6.55;4.38;;;;;;;;;;5036493;28;20214;-72
2023/05/21 01:55:58;;;;;;;7.95;4.95;;;;;;;;;;5031284;28;20754;-72
2023/05/21 01:58:24;;;;;;;8.77;4.85;;;;;;;;;;5029625;28;20202;-73
2023/05/21 02:00:52;;;;;;;6.40;4.70;;;;;;;;;;5032873;28;20631;-73
2023/05/21 02:03:19;;;;;;;5.13;4.13;;;;;;;;;;5024988;28;20186;-72
2023/05/21 02:05:45;;;;;;;5.32;4.20;;;;;;;;;;5032670;28;20269;-72
2023/05/21 02:08:11;;;;;;;5.60;4.60;;;;;;;;;;5015953;28;20191;-72
2023/05/21 02:10:37;;;;;;;5.82;4.70;;;;;;;;;;5023452;28;20197;-72
2023/05/21 02:13:02;;;;;;;8.63;4.80;;;;;;;;;;5028436;28;20213;-73
2023/05/21 02:15:29;;;;;;;6.28;4.90;;;;;;;;;;5034258;28;20560;-73
2023/05/21 02:17:54;;;;;;;6.30;4.72;;;;;;;;;;5033020;28;20208;-72
2023/05/21 02:20:21;;;;;;;7.20;4.88;;;;;;;;;;5032636;28;20186;-72
2023/05/21 02:22:47;;;;;;;6.03;4.93;;;;;;;;;;5028129;28;20198;-73
2023/05/21 02:25:15;;;;;;;7.05;4.88;;;;;;;;;;5038377;28;20189;-73
2023/05/21 02:27:41;;;;;;;8.98;5.20;;;;;;;;;;5030890;28;20281;-72
2023/05/21 02:30:09;;;;;;;7.43;4.78;;;;;;;;;;5031957;28;20927;-72
2023/05/21 02:32:35;;;;;;;6.38;4.97;;;;;;;;;;5032600;28;20937;-72
2023/05/21 02:35:05;;;;;;;9.68;5.53;;;;;;;;;;5032707;28;20202;-73
2023/05/21 02:37:34;;;;;;;5.50;4.70;;;;;;;;;;5018178;28;20277;-72
2023/05/21 02:40:01;;;;;;;5.75;4.88;;;;;;;;;;5031762;28;20232;-72
2023/05/21 02:42:26;;;;;;;6.30;5.13;;;;;;;;;;5030383;28;20201;-72
2023/05/21 02:44:52;;;;;;;6.18;5.13;;;;;;;;;;5020596;28;20193;-71
2023/05/21 02:47:18;;;;;;;6.18;5.50;;;;;;;;;;5032420;28;20666;-71
2023/05/21 02:49:44;;;;;;;9.07;5.72;;;;;;;;;;5020731;28;20190;-72
2023/05/21 02:52:10;;;;;;;6.70;5.22;;;;;;;;;;5030812;28;20194;-71
2023/05/21 02:54:35;;;;;;;7.43;5.43;;;;;;;;;;5027490;28;20216;-71
2023/05/21 02:57:01;;;;;;;7.55;5.78;;;;;;;;;;5031415;28;20250;-72
2023/05/21 02:59:26;;;;;;;5.93;4.93;;;;;;;;;;5022682;28;20280;-72
2023/05/21 03:01:51;;;;;;;7.97;5.60;;;;;;;;;;5028470;28;20673;-71
2023/05/21 03:04:17;;;;;;;8.50;5.88;;;;;;;;;;5020039;28;20186;-72
2023/05/21 03:06:43;;;;;;;9.52;5.72;;;;;;;;;;5012482;28;20245;-72
2023/05/21 03:09:09;;;;;;;6.78;5.10;;;;;;;;;;5022799;28;20225;-73
2023/05/21 03:11:35;;;;;;;10.15;6.00;;;;;;;;;;5028734;28;20190;-72
2023/05/21 03:14:00;;;;;;;7.90;5.70;;;;;;;;;;5031920;28;20217;-73
2023/05/21 03:16:26;;;;;;;7.65;5.63;;;;;;;;;;5027004;28;20201;-72
2023/05/21 03:18:51;;;;;;;6.97;5.70;;;;;;;;;;5023832;28;20668;-72
2023/05/21 03:21:16;;;;;;;6.95;5.43;;;;;;;;;;5028189;28;20190;-72
2023/05/21 03:23:42;;;;;;;6.20;5.40;;;;;;;;;;5014559;28;20312;-72
2023/05/21 03:26:10;;;;;;;11.18;5.88;;;;;;;;;;5030690;28;20281;-73
2023/05/21 03:28:35;;;;;;;6.88;5.93;;;;;;;;;;5025719;28;20669;-73
2023/05/21 03:31:01;;;;;;;8.05;5.78;;;;;;;;;;5023876;28;20194;-72
2023/05/21 03:33:26;;;;;;;7.40;5.75;;;;;;;;;;5027777;28;20625;-72
2023/05/21 03:35:51;;;;;;;9.52;5.53;;;;;;;;;;5022497;28;20210;-72
2023/05/21 03:38:17;;;;;;;10.00;6.20;;;;;;;;;;5038013;28;20224;-72
2023/05/21 03:40:42;;;;;;;12.27;6.00;;;;;;;;;;5032244;28;20428;-72
2023/05/21 03:43:07;;;;;;;8.70;6.22;;;;;;;;;;5029508;28;20190;-72
2023/05/21 03:45:33;;;;;;;7.47;5.70;;;;;;;;;;5029760;28;20700;-72
2023/05/21 03:47:58;;;;;;;8.98;5.95;;;;;;;;;;5037796;28;20204;-72
2023/05/21 03:50:23;;;;;;;8.27;6.10;;;;;;;;;;5043859;28;20378;-71
2023/05/21 03:52:49;;;;;;;8.68;5.90;;;;;;;;;;5059065;28;20207;-72
2023/05/21 03:55:15;;;;;;;10.70;6.10;;;;;;;;;;5029527;28;20221;-73
2023/05/21 03:57:40;;;;;;;6.90;6.00;;;;;;;;;;5028160;28;20654;-72
2023/05/21 04:00:07;;;;;;;8.30;5.85;;;;;;;;;;5010761;28;20186;-73
2023/05/21 04:02:33;;;;;;;7.68;5.97;;;;;;;;;;5023650;28;20250;-73
2023/05/21 04:04:58;;;;;;;9.10;6.07;;;;;;;;;;5020877;28;20183;-72
2023/05/21 04:07:23;;;;;;;8.13;6.38;;;;;;;;;;5029039;28;20198;-73
2023/05/21 04:09:49;;;;;;;8.18;5.97;;;;;;;;;;5013704;28;20265;-72
2023/05/21 04:12:16;;;;;;;9.93;6.47;;;;;;;;;;5028726;28;20614;-71
2023/05/21 04:14:42;;;;;;;8.43;6.30;;;;;;;;;;5038999;28;20525;-72
2023/05/21 04:17:07;;;;;;;8.63;6.60;;;;;;;;;;5029380;28;20304;-71
2023/05/21 04:19:33;;;;;;;11.95;6.40;;;;;;;;;;5029250;28;20277;-72
2023/05/21 04:21:58;;;;;;;13.60;7.05;;;;;;;;;;5024974;28;20186;-72
2023/05/21 04:24:24;;;;;;;7.82;6.03;;;;;;;;;;5023546;28;20237;-72
2023/05/21 04:26:49;;;;;;;10.65;6.13;;;;;;;;;;5016454;28;20198;-72
2023/05/21 04:29:16;;;;;;;9.35;6.40;;;;;;;;;;5028156;28;20297;-72
2023/05/21 04:31:42;;;;;;;7.07;6.05;;;;;;;;;;5027347;28;20268;-72
2023/05/21 04:34:08;;;;;;;10.43;6.15;;;;;;;;;;5028999;28;20689;-72
2023/05/21 04:36:33;;;;;;;11.25;6.78;;;;;;;;;;5021450;28;20187;-73
2023/05/21 04:38:59;;;;;;;13.93;6.60;;;;;;;;;;5043123;28;20238;-72
2023/05/21 04:41:24;;;;;;;9.45;6.00;;;;;;;;;;5016457;28;20190;-72
2023/05/21 04:43:53;;;;;;;8.57;6.05;;;;;;;;;;5028684;28;20198;-69
2023/05/21 04:46:23;;;;;;;9.13;6.72;;;;;;;;;;5024433;28;20198;-72
2023/05/21 04:48:52;;;;;;;9.90;6.40;;;;;;;;;;5027413;28;20197;-71
2023/05/21 04:51:18;;;;;;;9.18;6.63;;;;;;;;;;5031764;28;20235;-72
2023/05/21 04:53:43;;;;;;;7.60;6.18;;;;;;;;;;5033786;28;20288;-72
2023/05/21 04:56:08;;;;;;;9.55;6.10;;;;;;;;;;5030324;28;21034;-71
2023/05/21 04:58:34;;;;;;;9.60;6.25;;;;;;;;;;5023605;28;20212;-71
2023/05/21 05:01:01;;;;;;;11.07;6.22;;;;;;;;;;5022754;28;20203;-69
2023/05/21 05:03:27;;;;;;;9.65;6.82;;;;;;;;;;5033182;28;20181;-72
2023/05/21 05:05:53;;;;;;;10.00;6.93;;;;;;;;;;5031053;28;20583;-73
2023/05/21 05:08:18;;;;;;;10.95;6.53;;;;;;;;;;5042866;28;20608;-72
2023/05/21 05:10:43;;;;;;;11.13;6.75;;;;;;;;;;5026157;28;20201;-73
2023/05/21 05:13:09;;;;;;;10.85;6.68;;;;;;;;;;5026420;28;20183;-73
2023/05/21 05:15:34;;;;;;;11.77;6.50;;;;;;;;;;5030794;28;20213;-71
2023/05/21 05:18:00;;;;;;;8.10;6.18;;;;;;;;;;5028912;28;20186;-72
2023/05/21 05:20:26;;;;;;;10.48;7.47;;;;;;;;;;5012630;28;20552;-72
2023/05/21 05:22:51;;;;;;;9.60;6.78;;;;;;;;;;5028284;28;20240;-72
2023/05/21 05:25:17;;;;;;;11.65;6.70;;;;;;;;;;5027977;28;20587;-72
2023/05/21 05:27:42;;;;;;;12.20;6.93;;;;;;;;;;5026347;28;20190;-73
2023/05/21 05:30:08;;;;;;;9.18;6.68;;;;;;;;;;5017543;28;20233;-72
2023/05/21 05:32:33;;;;;;;8.38;6.57;;;;;;;;;;5023672;28;20201;-72
2023/05/21 05:34:59;;;;;;;12.25;6.63;;;;;;;;;;5032116;28;20206;-73
2023/05/21 05:37:24;;;;;;;10.73;6.93;;;;;;;;;;5013528;28;20195;-71
2023/05/21 05:39:50;;;;;;;10.43;6.63;;;;;;;;;;5020460;28;20792;-72
2023/05/21 05:42:15;;;;;;;8.75;6.57;;;;;;;;;;5023080;28;20319;-72
2023/05/21 05:44:41;;;;;;;12.68;6.63;;;;;;;;;;5028458;28;20194;-73
2023/05/21 05:47:09;;;;;;;8.27;6.38;;;;;;;;;;5019054;28;20268;-72
2023/05/21 05:49:35;;;;;;;9.45;7.55;;;;;;;;;;5023476;28;20471;-72
2023/05/21 05:52:01;;;;;;;11.93;6.30;;;;;;;;;;5024592;28;20189;-72
2023/05/21 05:54:26;;;;;;;7.82;6.20;;;;;;;;;;5026437;28;20214;-71
2023/05/21 05:56:51;;;;;;;10.27;6.47;;;;;;;;;;5031834;28;20559;-72
2023/05/21 05:59:17;;;;;;;11.43;6.47;;;;;;;;;;5019026;28;20202;-72
2023/05/21 06:01:42;;;;;;;11.27;6.90;;;;;;;;;;5024469;28;20317;-71
2023/05/21 06:04:07;;;;;;;11.13;6.47;;;;;;;;;;5014160;28;20194;-73
2023/05/21 06:06:33;;;;;;;12.02;6.93;;;;;;;;;;5012529;28;20245;-72
2023/05/21 06:08:59;;;;;;;10.98;7.00;;;;;;;;;;5014564;28;20194;-72
2023/05/21 06:11:25;;;;;;;8.55;6.28;;;;;;;;;;5017757;28;20190;-72
2023/05/21 06:13:50;;;;;;;9.43;6.90;;;;;;;;;;5013630;28;20205;-72
2023/05/21 06:16:16;;;;;;;10.43;7.10;;;;;;;;;;5018694;28;20182;-72
2023/05/21 06:18:42;;;;;;;8.32;6.40;;;;;;;;;;5025231;28;20614;-72
2023/05/21 06:21:07;;;;;;;10.15;6.60;;;;;;;;;;5035020;28;20276;-71
2023/05/21 06:23:35;;;;;;;11.13;6.47;;;;;;;;;;4327005;28;10000725;-72
2023/05/21 06:26:00;;;;;;;8.80;5.68;;;;;;;;;;5031362;28;20768;-72
2023/05/21 06:28:26;;;;;;;8.50;5.93;;;;;;;;;;5024925;28;20196;-73
2023/05/21 06:30:51;;;;;;;8.60;6.50;;;;;;;;;;5025041;28;20739;-72
2023/05/21 06:33:17;;;;;;;7.70;6.07;;;;;;;;;;5028779;28;20650;-72
2023/05/21 06:35:42;;;;;;;13.07;7.25;;;;;;;;;;5028796;28;20202;-72
2023/05/21 06:38:07;;;;;;;15.50;7.18;;;;;;;;;;5014633;28;20318;-72
2023/05/21 06:40:34;;;;;;;11.82;8.20;;;;;;;;;;5033346;28;20205;-74
2023/05/21 06:42:59;;;;;;;11.52;8.07;;;;;;;;;;5027215;28;20205;-72
2023/05/21 06:45:24;;;;;;;10.88;7.15;;;;;;;;;;5030508;28;20197;-72
2023/05/21 06:47:50;;;;;;;12.45;7.72;;;;;;;;;;5028661;28;20236;-72
2023/05/21 06:50:15;;;;;;;9.77;7.32;;;;;;;;;;5025782;28;20272;-73
2023/05/21 06:52:41;;;;;;;11.48;5.82;;;;;;;;;;5033366;28;20182;-73
2023/05/21 06:55:06;;;;;;;10.98;6.57;;;;;;;;;;5032629;28;20221;-72
2023/05/21 06:57:32;;;;;;;9.90;6.18;;;;;;;;;;5038107;28;20528;-71
2023/05/21 06:59:57;;;;;;;7.97;5.97;;;;;;;;;;5036609;28;20197;-70
2023/05/21 07:02:23;;;;;;;9.07;5.80;;;;;;;;;;5026849;28;20201;-72
2023/05/21 07:04:48;;;;;;;10.10;6.05;;;;;;;;;;5025741;28;20194;-72
2023/05/21 07:07:13;;;;;;;12.40;6.13;;;;;;;;;;5036689;28;20746;-73
2023/05/21 07:09:39;;;;;;;10.75;6.15;;;;;;;;;;5037828;28;20205;-71
2023/05/21 07:12:04;;;;;;;9.23;5.90;;;;;;;;;;5035571;28;20518;-71
2023/05/21 07:14:30;;;;;;;6.90;5.50;;;;;;;;;;5045093;28;20222;-71
2023/05/21 07:16:55;;;;;;;8.75;6.40;;;;;;;;;;5029572;28;20645;-71
2023/05/21 07:19:21;;;;;;;11.20;6.00;;;;;;;;;;5028221;28;20190;-72
2023/05/21 07:21:46;;;;;;;9.70;6.57;;;;;;;;;;5031691;28;20183;-72
2023/05/21 07:24:11;;;;;;;9.05;6.38;;;;;;;;;;5021549;28;20237;-72
2023/05/21 07:26:37;;;;;;;8.65;5.85;;;;;;;;;;5020231;28;20560;-71
2023/05/21 07:29:02;;;;;;;13.32;6.68;;;;;;;;;;5029940;28;20244;-70
2023/05/21 07:31:28;;;;;;;10.80;5.90;;;;;;;;;;4675687;28;9999608;-73
2023/05/21 07:33:53;;;;;;;10.27;5.70;;;;;;;;;;5026647;28;20484;-72
2023/05/21 07:36:18;;;;;;;10.20;6.47;;;;;;;;;;5017007;28;20190;-72
2023/05/21 07:38:44;;;;;;;10.29;5.71;;;;;;;;;;4675842;28;10000367;-72
2023/05/21 07:41:09;;;;;;;9.93;6.82;;;;;;;;;;5017193;28;20445;-73
2023/05/21 07:43:35;;;;;;;10.93;6.78;;;;;;;;;;5037096;28;20193;-71
2023/05/21 07:46:00;;;;;;;7.68;5.85;;;;;;;;;;5033631;28;20194;-71
2023/05/21 07:48:26;;;;;;;10.73;6.38;;;;;;;;;;5024005;28;20194;-72
2023/05/21 07:50:53;;;;;;;11.38;6.50;;;;;;;;;;5035743;28;20212;-74
2023/05/21 07:53:18;;;;;;;10.63;6.57;;;;;;;;;;5021225;28;20190;-72
2023/05/21 07:55:46;;;;;;;9.55;7.13;;;;;;;;;;5025909;28;20252;-71
2023/05/21 07:58:19;;;;;;;9.85;6.22;;;;;;;;;;5022594;28;20194;-72
2023/05/21 08:00:46;;;;;;;11.93;7.20;;;;;;;;;;5027898;28;20345;-72
2023/05/21 08:03:17;;;;;;;12.00;7.22;;;;;;;;;;5026931;28;20672;-72
2023/05/21 08:05:47;;;;;;;10.88;6.93;;;;;;;;;;5025240;28;20537;-72
2023/05/21 08:08:18;;;;;;;8.80;6.43;;;;;;;;;;5027185;28;20210;-72
2023/05/21 08:10:45;;;;;;;10.90;7.40;;;;;;;;;;5016982;28;20635;-72
2023/05/21 08:13:11;;;;;;;9.02;6.93;;;;;;;;;;5030094;28;20219;-72
2023/05/21 08:15:36;;;;;;;10.18;7.00;;;;;;;;;;5019248;28;21190;-71
2023/05/21 08:18:02;;;;;;;9.55;6.30;;;;;;;;;;5030235;28;20198;-72
2023/05/21 08:20:29;;;;;;;9.52;6.95;;;;;;;;;;5041083;28;20257;-71
2023/05/21 08:22:55;;;;;;;8.38;6.80;;;;;;;;;;5044682;28;20193;-70
2023/05/21 08:25:20;;;;;;;13.25;7.10;;;;;;;;;;5031970;28;20279;-70
2023/05/21 08:27:46;;;;;;;16.27;7.45;;;;;;;;;;5027655;28;20248;-72
2023/05/21 08:30:12;;;;;;;12.45;8.07;;;;;;;;;;5016204;28;20217;-72
2023/05/21 08:32:37;;;;;;;13.15;8.05;;;;;;;;;;5033845;28;20214;-72
2023/05/21 08:35:03;;;;;;;13.02;7.30;;;;;;;;;;5026901;28;20346;-72
2023/05/21 08:37:28;;;;;;;12.00;7.22;;;;;;;;;;5024474;28;20260;-72
2023/05/21 08:39:53;;;;;;;16.88;7.55;;;;;;;;;;5016274;28;20308;-72
2023/05/21 08:42:43;;;;;;;12.25;7.47;;;;;;;;;;5024752;28;20225;-72
2023/05/21 08:45:12;;;;;;;12.27;8.38;;;;;;;;;;5022241;28;20628;-71
2023/05/21 08:47:40;;;;;;;13.55;7.30;;;;;;;;;;5029040;28;20186;-71
2023/05/21 08:50:11;;;;;;;12.07;7.85;;;;;;;;;;5039702;28;20641;-71
2023/05/21 08:52:36;;;;;;;13.60;7.50;;;;;;;;;;5020670;28;20676;-72
2023/05/21 08:55:03;;;;;;;10.95;8.13;;;;;;;;;;5009346;28;20234;-72
2023/05/21 08:57:29;;;;;;;9.75;8.00;;;;;;;;;;5019120;28;20682;-72
2023/05/21 08:59:55;;;;;;;12.75;8.43;;;;;;;;;;5031876;28;20816;-72
2023/05/21 09:02:20;;;;;;;9.98;7.72;;;;;;;;;;5026961;28;20294;-71
2023/05/21 09:04:48;;;;;;;13.73;8.32;;;;;;;;;;5028439;28;20999;-72
2023/05/21 09:07:15;;;;;;;13.38;8.80;;;;;;;;;;5034666;28;20273;-72
2023/05/21 09:09:48;;;;;;;12.10;7.97;;;;;;;;;;5016981;28;20198;-71
2023/05/21 09:12:13;;;;;;;11.43;8.32;;;;;;;;;;5021502;28;20217;-72
2023/05/21 09:14:40;;;;;;;12.73;8.52;;;;;;;;;;5027337;28;20210;-72
2023/05/21 09:17:06;;;;;;;16.17;9.02;;;;;;;;;;5021032;28;20276;-72
2023/05/21 09:19:31;;;;;;;11.77;8.50;;;;;;;;;;5020735;28;20274;-72
2023/05/21 09:22:03;;;;;;;11.23;8.63;;;;;;;;;;5024382;28;20203;-72
2023/05/21 09:24:32;;;;;;;13.30;8.32;;;;;;;;;;5028285;28;20198;-72
2023/05/21 09:27:00;;;;;;;11.07;8.95;;;;;;;;;;5018586;28;20217;-72
2023/05/21 09:29:26;;;;;;;13.20;9.05;;;;;;;;;;5019127;28;20193;-72
2023/05/21 09:31:53;;;;;;;12.00;8.82;;;;;;;;;;5042095;28;20208;-73
2023/05/21 09:34:19;;;;;;;12.45;8.35;;;;;;;;;;5021947;28;20217;-73
2023/05/21 09:36:44;;;;;;;11.73;8.43;;;;;;;;;;5011809;28;20190;-72
2023/05/21 09:39:15;;;;;;;14.38;9.68;;;;;;;;;;5016153;28;20226;-71
2023/05/21 09:41:41;;;;;;;13.43;9.77;;;;;;;;;;5021517;28;20262;-72
2023/05/21 09:44:06;;;;;;;11.68;8.68;;;;;;;;;;5017416;28;20195;-72
2023/05/21 09:46:39;;;;;;;15.82;9.95;;;;;;;;;;5022995;28;20192;-72
2023/05/21 09:49:05;;;;;;;15.50;10.63;;;;;;;;;;5020260;28;20198;-72
2023/05/21 09:51:30;;;;;;;14.40;10.55;;;;;;;;;;5023129;28;20575;-72
2023/05/21 09:53:56;;;;;;;15.43;10.70;;;;;;;;;;5019231;28;20223;-72
2023/05/21 09:56:30;;;;;;;17.17;11.02;;;;;;;;;;5013062;28;20204;-72
2023/05/21 09:58:59;;;;;;;14.05;10.43;;;;;;;;;;5018109;28;20190;-73
2023/05/21 10:01:24;;;;;;;15.77;10.68;;;;;;;;;;5022131;28;20281;-72
2023/05/21 10:03:55;;;;;;;13.60;10.27;;;;;;;;;;5021258;28;20499;-72
2023/05/21 10:06:22;;;;;;;17.05;11.15;;;;;;;;;;5029194;28;20182;-72
2023/05/21 10:08:52;;;;;;;15.65;11.40;;;;;;;;;;5022497;28;20357;-72
2023/05/21 10:11:18;;;;;;;18.38;12.25;;;;;;;;;;5017653;28;20190;-73
2023/05/21 10:13:48;;;;;;;15.77;11.98;;;;;;;;;;5028620;28;20203;-72
2023/05/21 10:16:14;;;;;;;19.13;12.18;;;;;;;;;;5029585;28;20498;-72
2023/05/21 10:18:41;;;;;;;18.55;11.15;;;;;;;;;;5020201;28;20692;-72
2023/05/21 10:21:07;;;;;;;15.30;12.40;;;;;;;;;;5018013;28;20694;-71
2023/05/21 10:23:35;;;;;;;21.70;13.55;;;;;;;;;;5030874;28;20194;-72
2023/05/21 10:26:01;;;;;;;17.13;12.73;;;;;;;;;;5027602;28;20261;-73
2023/05/21 10:28:29;;;;;;;18.67;12.75;;;;;;;;;;5019083;28;20681;-72
2023/05/21 10:30:54;;;;;;;18.58;12.07;;;;;;;;;;5028766;28;20196;-72
2023/05/21 10:33:23;;;;;;;15.45;12.38;;;;;;;;;;5034037;28;20701;-72
2023/05/21 10:35:50;;;;;;;18.17;12.40;;;;;;;;;;5024606;28;20274;-73
2023/05/21 10:38:19;;;;;;;19.17;12.77;;;;;;;;;;5011617;28;20255;-71
2023/05/21 10:40:47;;;;;;;19.90;13.45;;;;;;;;;;5019207;28;20634;-72
2023/05/21 10:43:34;;;;;;;16.42;13.38;;;;;;;;;;5015262;28;20278;-69
2023/05/21 10:46:25;;;;;;;18.30;12.63;;;;;;;;;;5012507;28;20179;-69
2023/05/21 10:49:15;;;;;;;21.38;13.60;;;;;;;;;;5021037;28;20557;-71
2023/05/21 10:51:52;;;;;;;18.13;12.65;;;;;;;;;;5017498;28;20202;-71
2023/05/21 10:54:47;;;;;;;20.48;13.98;;;;;;;;;;5020385;28;20690;-72
2023/05/21 10:57:30;;;;;;;22.35;12.73;;;;;;;;;;5022531;28;20186;-71
2023/05/21 10:59:57;;;;;;;17.15;12.52;;;;;;;;;;5011457;28;20197;-70
2023/05/21 11:02:25;;;;;;;18.63;13.77;;;;;;;;;;5020466;28;20647;-71
2023/05/21 11:04:57;;;;;;;17.80;13.90;;;;;;;;;;5009766;28;20187;-68
2023/05/21 11:07:49;;;;;;;19.48;13.68;;;;;;;;;;5019821;28;20191;-69
2023/05/21 11:10:39;;;;;;;18.42;13.23;;;;;;;;;;5017046;28;20264;-71
2023/05/21 11:13:10;;;;;;;20.23;13.98;;;;;;;;;;5027683;28;20287;-70
2023/05/21 11:15:57;;;;;;;22.73;14.05;;;;;;;;;;5015700;28;20736;-71
2023/05/21 11:18:34;;;;;;;18.10;13.82;;;;;;;;;;5018539;28;20217;-72
2023/05/21 11:21:03;;;;;;;18.17;13.05;;;;;;;;;;5020419;28;20190;-71
2023/05/21 11:23:48;;;;;;;17.65;13.20;;;;;;;;;;5026611;28;20269;-70
2023/05/21 11:26:17;;;;;;;20.35;12.80;;;;;;;;;;5031763;28;20193;-71
2023/05/21 11:28:43;;;;;;;20.45;14.30;;;;;;;;;;5023622;28;20191;-71
2023/05/21 11:31:25;;;;;;;17.08;13.95;;;;;;;;;;5016893;28;20424;-71
2023/05/21 11:34:09;;;;;;;19.27;14.68;;;;;;;;;;5027285;28;20214;-71
2023/05/21 11:36:43;;;;;;;18.30;13.38;;;;;;;;;;5022952;28;20600;-71
2023/05/21 11:39:14;;;;;;;18.10;13.10;;;;;;;;;;5025180;28;20236;-71
2023/05/21 11:42:12;;;;;;;19.10;13.43;;;;;;;;;;5035999;28;20276;-71
2023/05/21 11:44:46;;;;;;;17.20;13.10;;;;;;;;;;5008492;28;20198;-70
2023/05/21 11:47:16;;;;;;;19.35;14.40;;;;;;;;;;5029365;28;20694;-72
2023/05/21 11:49:43;;;;;;;18.83;13.48;;;;;;;;;;5018900;28;20208;-71
2023/05/21 11:52:09;;;;;;;18.33;13.15;;;;;;;;;;5023749;28;20248;-71
2023/05/21 11:54:49;;;;;;;19.05;14.35;;;;;;;;;;5025875;28;20847;-69
2023/05/21 11:57:17;;;;;;;16.40;12.90;;;;;;;;;;5021433;28;20661;-71
2023/05/21 11:59:44;;;;;;;21.10;13.90;;;;;;;;;;5024884;28;20613;-71
2023/05/21 12:02:17;;;;;;;20.40;13.57;;;;;;;;;;5025217;28;20274;-71
2023/05/21 12:04:43;;;;;;;21.13;13.85;;;;;;;;;;5023546;28;20269;-72
2023/05/21 12:07:09;;;;;;;17.83;13.63;;;;;;;;;;5021252;28;20225;-72
2023/05/21 12:09:38;;;;;;;18.35;12.93;;;;;;;;;;5021572;28;20249;-70
2023/05/21 12:12:05;;;;;;;20.92;13.55;;;;;;;;;;5022307;28;20194;-71
2023/05/21 12:14:30;;;;;;;19.67;14.07;;;;;;;;;;5023796;28;20222;-71
2023/05/21 12:16:56;;;;;;;22.98;14.20;;;;;;;;;;5020229;28;20204;-71
2023/05/21 12:19:22;;;;;;;17.45;12.88;;;;;;;;;;5024557;28;20515;-71
2023/05/21 12:21:47;;;;;;;17.63;13.57;;;;;;;;;;5021802;28;20210;-72
2023/05/21 12:24:14;;;;;;;18.75;13.15;;;;;;;;;;5024790;28;20626;-72
2023/05/21 12:26:40;;;;;;;20.35;13.07;;;;;;;;;;5026353;28;20186;-70
2023/05/21 12:29:06;;;;;;;19.02;13.13;;;;;;;;;;5017773;28;20201;-70
2023/05/21 12:31:32;;;;;;;18.80;13.27;;;;;;;;;;5017653;28;20186;-71
2023/05/21 12:33:57;;;;;;;16.85;13.10;;;;;;;;;;5022220;28;20290;-71
2023/05/21 12:36:30;;;;;;;19.75;14.52;;;;;;;;;;5032508;28;20591;-71
2023/05/21 12:38:59;;;;;;;19.73;13.38;;;;;;;;;;5017374;28;20230;-70
2023/05/21 12:41:25;;;;;;;24.35;14.07;;;;;;;;;;5027418;28;20197;-70
2023/05/21 12:43:50;;;;;;;19.25;13.20;;;;;;;;;;5015399;28;20194;-71
2023/05/21 12:46:17;;;;;;;16.60;13.70;;;;;;;;;;5018145;28;20651;-69
2023/05/21 12:48:54;;;;;;;17.52;13.57;;;;;;;;;;5023471;28;20194;-69
2023/05/21 12:51:19;;;;;;;19.02;14.15;;;;;;;;;;5022926;28;20297;-71
2023/05/21 12:53:46;;;;;;;20.02;14.05;;;;;;;;;;5028495;28;20653;-70
2023/05/21 12:56:12;;;;;;;18.77;13.90;;;;;;;;;;5029550;28;20186;-70
2023/05/21 12:58:39;;;;;;;16.23;13.27;;;;;;;;;;5026977;28;20221;-69
2023/05/21 13:01:06;;;;;;;20.05;13.10;;;;;;;;;;5027171;28;20217;-71
2023/05/21 13:03:32;;;;;;;17.33;12.98;;;;;;;;;;5027485;28;20541;-71
2023/05/21 13:05:58;;;;;;;18.15;12.05;;;;;;;;;;5022051;28;20189;-71
2023/05/21 13:08:23;;;;;;;17.63;13.65;;;;;;;;;;5020729;28;20259;-69
2023/05/21 13:10:49;;;;;;;22.23;14.52;;;;;;;;;;5020587;28;20190;-71
2023/05/21 13:13:14;;;;;;;16.58;13.43;;;;;;;;;;5020529;28;20194;-70
2023/05/21 13:15:40;;;;;;;19.05;13.32;;;;;;;;;;5022018;28;20718;-71
2023/05/21 13:18:05;;;;;;;19.08;14.07;;;;;;;;;;5013176;28;20186;-72
2023/05/21 13:20:31;;;;;;;17.17;13.63;;;;;;;;;;5018623;28;20682;-71
2023/05/21 13:22:56;;;;;;;18.83;13.85;;;;;;;;;;5024057;28;20201;-72
2023/05/21 13:25:23;;;;;;;19.00;13.25;;;;;;;;;;5029965;28;20657;-72
2023/05/21 13:27:50;;;;;;;16.63;13.02;;;;;;;;;;5020210;28;20612;-69
2023/05/21 13:30:16;;;;;;;18.95;13.68;;;;;;;;;;5022704;28;20581;-71
2023/05/21 13:32:42;;;;;;;18.13;12.75;;;;;;;;;;5021805;28;20236;-71
2023/05/21 13:35:08;;;;;;;20.55;12.75;;;;;;;;;;5020024;28;20211;-70
2023/05/21 13:37:35;;;;;;;17.13;13.32;;;;;;;;;;5029768;28;20192;-71
2023/05/21 13:40:02;;;;;;;16.73;13.23;;;;;;;;;;5020911;28;20227;-72
2023/05/21 13:42:28;;;;;;;20.73;14.50;;;;;;;;;;5020889;28;20194;-71
2023/05/21 13:44:53;;;;;;;20.90;14.02;;;;;;;;;;5020145;28;20200;-71
2023/05/21 13:47:18;;;;;;;18.40;13.75;;;;;;;;;;5022460;28;20244;-71
2023/05/21 13:49:44;;;;;;;19.10;13.30;;;;;;;;;;5021427;28;20271;-71
2023/05/21 13:52:10;;;;;;;19.88;14.02;;;;;;;;;;5012435;28;20187;-72
2023/05/21 13:54:35;;;;;;;15.68;12.60;;;;;;;;;;5014136;28;20214;-71
2023/05/21 13:57:01;;;;;;;19.77;12.88;;;;;;;;;;5030437;28;20331;-72
2023/05/21 13:59:27;;;;;;;16.23;13.85;;;;;;;;;;5019789;28;20565;-72
2023/05/21 14:01:52;;;;;;;17.05;14.00;;;;;;;;;;5029242;28;20625;-71
2023/05/21 14:04:18;;;;;;;16.85;12.60;;;;;;;;;;5027183;28;20186;-72
2023/05/21 14:06:45;;;;;;;15.80;12.52;;;;;;;;;;5012387;28;20189;-72
2023/05/21 14:09:10;;;;;;;16.60;13.35;;;;;;;;;;5014422;28;20222;-72
2023/05/21 14:11:36;;;;;;;19.95;15.07;;;;;;;;;;5021300;28;20245;-71
2023/05/21 14:14:01;;;;;;;18.70;13.65;;;;;;;;;;5033396;28;20206;-72
2023/05/21 14:16:27;;;;;;;15.20;13.38;;;;;;;;;;5025386;28;20201;-72
2023/05/21 14:18:53;;;;;;;20.08;13.40;;;;;;;;;;5023964;28;20198;-72
2023/05/21 14:21:18;;;;;;;15.23;13.13;;;;;;;;;;5016128;28;20210;-70
2023/05/21 14:23:44;;;;;;;20.27;14.02;;;;;;;;;;5018243;28;20700;-71
2023/05/21 14:26:09;;;;;;;17.45;14.32;;;;;;;;;;5012512;28;20206;-71
2023/05/21 14:28:35;;;;;;;20.30;13.23;;;;;;;;;;5012751;28;20214;-71
2023/05/21 14:31:00;;;;;;;18.48;13.13;;;;;;;;;;5018064;28;20642;-72